createdAt,value
2019-02-09T00:01:24.064Z,5.90
2019-02-09T00:03:57.726Z,7.80
2019-02-09T00:06:33.303Z,11.33
2019-02-09T00:09:10.344Z,4.53
2019-02-09T00:11:43.705Z,6.10
2019-02-09T00:14:17.789Z,5.90
2019-02-09T00:17:09.851Z,8.33
2019-02-09T00:19:55.392Z,6.43
2019-02-09T00:22:41.138Z,8.23
2019-02-09T00:35:54.591Z,9.63
2019-02-09T00:38:27.026Z,6.40
2019-02-09T00:41:00.762Z,5.50
2019-02-09T00:43:33.753Z,7.27
2019-02-09T00:46:06.610Z,7.03
2019-02-09T00:48:39.513Z,5.43
2019-02-09T00:51:25.249Z,5.80
2019-02-09T00:54:10.906Z,7.00
2019-02-09T00:56:57.274Z,6.90
2019-02-09T00:59:31.203Z,10.13
2019-02-09T01:02:05.025Z,6.57
2019-02-09T01:04:53.633Z,8.03
2019-02-09T01:07:27.672Z,6.97
2019-02-09T01:10:18.789Z,9.47
2019-02-09T01:13:12.893Z,9.27
2019-02-09T01:15:46.972Z,6.73
2019-02-09T01:18:37.919Z,8.77
2019-02-09T01:21:11.804Z,9.43
2019-02-09T01:24:07.376Z,9.43
2019-02-09T01:26:39.973Z,10.73
2019-02-09T01:29:14.124Z,9.47
2019-02-09T01:31:47.777Z,6.03
2019-02-09T01:34:39.231Z,7.17
2019-02-09T01:37:11.972Z,6.90
2019-02-09T01:39:45.937Z,9.90
2019-02-09T01:42:19.686Z,7.37
2019-02-09T01:44:53.168Z,10.37
2019-02-09T01:47:27.404Z,8.93
2019-02-09T01:50:02.146Z,10.60
2019-02-09T01:53:26.941Z,5.47
2019-02-09T01:56:00.963Z,8.53
2019-02-09T01:58:34.628Z,6.53
2019-02-09T02:01:08.463Z,8.40
2019-02-09T02:03:42.540Z,10.97
2019-02-09T02:06:35.132Z,9.87
2019-02-09T02:09:09.636Z,8.67
2019-02-09T02:12:01.398Z,6.97
2019-02-09T02:14:35.231Z,7.33
2019-02-09T02:17:09.820Z,11.97
2019-02-09T02:20:01.539Z,6.30
2019-02-09T02:22:54.293Z,7.73
2019-02-09T02:25:45.317Z,6.93
2019-02-09T02:28:31.249Z,6.73
2019-02-09T02:31:05.036Z,8.57
2019-02-09T02:33:41.318Z,7.30
2019-02-09T02:36:14.134Z,8.20
2019-02-09T02:38:48.199Z,6.70
2019-02-09T02:52:05.406Z,7.43
2019-02-09T03:10:45.268Z,9.93
2019-02-09T03:13:19.296Z,7.87
2019-02-09T03:16:09.763Z,7.50
2019-02-09T03:18:43.270Z,10.33
2019-02-09T03:21:17.324Z,6.90
2019-02-09T03:24:07.117Z,6.40
2019-02-09T03:26:43.207Z,5.43
2019-02-09T03:29:17.002Z,7.87
2019-02-09T03:31:50.754Z,7.23
2019-02-09T03:34:24.844Z,5.27
2019-02-09T03:37:17.668Z,9.00
2019-02-09T03:39:51.840Z,6.17
2019-02-09T03:42:26.206Z,6.50
2019-02-09T03:55:40.664Z,5.73
2019-02-09T03:58:14.220Z,5.53
2019-02-09T04:11:47.494Z,4.67
2019-02-09T04:14:33.577Z,4.13
2019-02-09T04:17:06.328Z,4.53
2019-02-09T04:19:40.410Z,3.50
2019-02-09T04:22:36.057Z,5.97
2019-02-09T04:25:27.610Z,3.93
2019-02-09T04:28:01.419Z,5.80
2019-02-09T04:30:35.523Z,3.33
2019-02-09T04:33:35.517Z,4.23
2019-02-09T04:36:09.369Z,8.23
2019-02-09T04:38:43.875Z,6.97
2019-02-09T04:41:18.435Z,3.27
2019-02-09T04:43:52.235Z,4.00
2019-02-09T04:46:44.503Z,6.20
2019-02-09T04:49:18.789Z,4.60
2019-02-09T04:51:52.633Z,5.37
2019-02-09T04:54:26.590Z,5.20
2019-02-09T04:57:50.734Z,4.93
2019-02-09T05:00:42.876Z,7.47
2019-02-09T05:03:36.932Z,5.60
2019-02-09T05:06:10.560Z,4.80
2019-02-09T05:08:44.047Z,8.27
2019-02-09T05:11:17.883Z,6.30
2019-02-09T05:13:51.997Z,5.93
2019-02-09T05:16:25.747Z,8.03
2019-02-09T05:19:00.315Z,5.07
2019-02-09T05:21:34.752Z,4.70
2019-02-09T05:24:20.982Z,5.40
2019-02-09T05:27:12.490Z,8.30
2019-02-09T05:29:58.612Z,6.73
2019-02-09T05:32:32.098Z,5.83
2019-02-09T05:35:04.996Z,6.50
2019-02-09T05:37:51.602Z,4.57
2019-02-09T05:40:25.435Z,5.60
2019-02-09T05:42:58.899Z,6.33
2019-02-09T05:45:31.647Z,6.23
2019-02-09T05:48:23.156Z,5.30
2019-02-09T05:51:08.824Z,6.10
2019-02-09T05:53:42.619Z,6.40
2019-02-09T05:56:33.839Z,7.67
2019-02-09T05:59:19.398Z,5.00
2019-02-09T06:02:11.176Z,4.93
2019-02-09T06:04:57.475Z,7.50
2019-02-09T06:07:31.841Z,6.07
2019-02-09T06:10:08.568Z,7.33
2019-02-09T06:12:43.773Z,6.30
2019-02-09T06:15:18.407Z,8.37
2019-02-09T06:18:04.834Z,5.50
2019-02-09T06:20:37.555Z,10.90
2019-02-09T06:23:11.333Z,9.23
2019-02-09T06:25:45.479Z,5.87
2019-02-09T06:28:39.939Z,5.70
2019-02-09T06:31:25.863Z,6.80
2019-02-09T06:34:11.571Z,8.33
2019-02-09T06:36:57.055Z,6.90
2019-02-09T06:39:45.829Z,6.90
2019-02-09T06:42:39.124Z,5.37
2019-02-09T06:45:15.946Z,6.27
2019-02-09T06:47:49.918Z,4.80
2019-02-09T06:50:26.357Z,8.07
2019-02-09T06:53:00.834Z,5.93
2019-02-09T06:55:51.545Z,4.90
2019-02-09T06:58:25.026Z,11.23
2019-02-09T07:00:58.901Z,4.47
2019-02-09T07:03:32.738Z,4.03
2019-02-09T07:06:06.623Z,4.30
2019-02-09T07:08:40.415Z,3.20
2019-02-09T07:11:13.138Z,4.83
2019-02-09T07:13:47.428Z,4.17
2019-02-09T07:16:21.815Z,4.30
2019-02-09T07:18:55.604Z,4.90
2019-02-09T07:21:29.989Z,4.83
2019-02-09T07:24:03.691Z,2.80
2019-02-09T07:26:55.552Z,5.20
2019-02-09T07:29:46.173Z,5.73
2019-02-09T07:32:37.269Z,5.87
2019-02-09T07:35:12.295Z,5.03
2019-02-09T07:38:00.993Z,3.47
2019-02-09T07:40:34.976Z,6.53
2019-02-09T07:43:08.807Z,4.33
2019-02-09T07:45:43.430Z,5.77
2019-02-09T07:48:17.924Z,7.77
2019-02-09T07:50:52.046Z,8.30
2019-02-09T07:53:50.310Z,6.87
2019-02-09T07:56:24.554Z,13.63
2019-02-09T07:58:58.507Z,9.43
2019-02-09T08:01:32.247Z,10.33
2019-02-09T08:04:06.158Z,9.47
2019-02-09T08:06:41.407Z,9.57
2019-02-09T08:09:15.344Z,6.60
2019-02-09T08:12:01.466Z,8.17
2019-02-09T08:14:34.461Z,8.67
2019-02-09T08:17:08.623Z,10.03
2019-02-09T08:19:42.534Z,10.57
2019-02-09T08:22:16.695Z,10.77
2019-02-09T08:25:02.475Z,10.40
2019-02-09T08:27:34.506Z,9.17
2019-02-09T08:30:29.227Z,6.47
2019-02-09T08:33:03.393Z,6.90
2019-02-09T08:35:49.039Z,6.30
2019-02-09T08:38:34.930Z,10.43
2019-02-09T08:41:29.139Z,9.33
2019-02-09T08:44:19.685Z,10.40
2019-02-09T08:46:52.853Z,7.97
2019-02-09T08:49:27.746Z,9.00
2019-02-09T08:52:01.771Z,12.47
2019-02-09T08:54:35.667Z,13.67
2019-02-09T08:57:12.085Z,10.80
2019-02-09T08:59:45.490Z,8.53
2019-02-09T09:02:20.841Z,12.77
2019-02-09T09:04:54.454Z,10.03
2019-02-09T09:07:28.689Z,12.77
2019-02-09T09:10:02.979Z,10.00
2019-02-09T09:12:36.890Z,7.80
2019-02-09T09:15:15.086Z,9.73
2019-02-09T09:17:48.731Z,11.30
2019-02-09T09:20:25.509Z,7.53
2019-02-09T09:22:59.291Z,12.63
2019-02-09T09:25:33.228Z,10.77
2019-02-09T09:28:07.461Z,11.90
2019-02-09T09:30:58.788Z,10.03
2019-02-09T09:33:32.874Z,9.50
2019-02-09T09:47:05.458Z,9.63
2019-02-09T09:49:57.262Z,10.27
2019-02-09T09:52:29.415Z,7.93
2019-02-09T09:55:02.854Z,9.83
2019-02-09T09:57:48.054Z,11.77
2019-02-09T10:00:21.906Z,7.47
2019-02-09T10:02:54.220Z,10.93
2019-02-09T10:05:28.381Z,13.20
2019-02-09T10:08:02.674Z,10.53
2019-02-09T10:10:36.580Z,9.17
2019-02-09T10:13:10.102Z,7.20
2019-02-09T10:15:44.506Z,9.83
2019-02-09T10:18:18.848Z,11.57
2019-02-09T10:20:52.702Z,12.53
2019-02-09T10:23:26.765Z,10.83
2019-02-09T10:26:00.580Z,12.37
2019-02-09T10:28:46.075Z,9.80
2019-02-09T10:31:35.496Z,10.93
2019-02-09T10:34:09.240Z,12.23
2019-02-09T10:36:41.929Z,9.10
2019-02-09T10:39:15.351Z,11.53
2019-02-09T10:41:49.398Z,14.90
2019-02-09T10:44:24.532Z,17.30
2019-02-09T10:46:58.631Z,15.03
2019-02-09T10:49:36.315Z,10.63
2019-02-09T10:52:09.582Z,11.77
2019-02-09T10:54:44.392Z,11.40
2019-02-09T10:57:21.700Z,13.97
2019-02-09T11:10:37.540Z,11.97
2019-02-09T11:24:01.114Z,9.80
2019-02-09T11:26:54.589Z,12.40
2019-02-09T11:29:29.026Z,8.80
2019-02-09T11:32:02.539Z,14.80
2019-02-09T11:34:36.316Z,8.63
2019-02-09T11:37:10.001Z,10.27
2019-02-09T11:39:44.236Z,13.73
2019-02-09T11:42:17.762Z,17.97
2019-02-09T11:45:17.125Z,17.30
2019-02-09T11:47:50.872Z,14.53
2019-02-09T11:50:25.668Z,11.93
2019-02-09T11:52:58.169Z,12.90
2019-02-09T11:55:50.419Z,13.30
2019-02-09T11:58:24.278Z,14.90
2019-02-09T12:01:11.220Z,13.53
2019-02-09T12:03:45.879Z,9.43
2019-02-09T12:06:18.975Z,11.33
2019-02-09T12:09:40.168Z,10.70
2019-02-09T12:12:12.439Z,10.10
2019-02-09T12:14:46.599Z,15.13
2019-02-09T12:17:21.144Z,9.60
2019-02-09T12:19:53.702Z,11.87
2019-02-09T12:22:27.461Z,10.77
2019-02-09T12:25:01.469Z,13.80
2019-02-09T12:27:55.246Z,12.63
2019-02-09T12:30:47.643Z,12.33
2019-02-09T12:33:44.945Z,13.40
2019-02-09T12:36:21.787Z,10.73
2019-02-09T12:38:54.572Z,11.17
2019-02-09T12:41:46.146Z,12.63
2019-02-09T12:44:19.505Z,11.83
2019-02-09T12:47:08.632Z,12.73
2019-02-09T12:49:41.421Z,9.50
2019-02-09T12:52:30.196Z,14.27
2019-02-09T12:55:04.308Z,11.80
2019-02-09T12:57:39.619Z,14.97
2019-02-09T13:00:21.352Z,10.30
2019-02-09T13:02:54.872Z,13.20
2019-02-09T13:05:28.483Z,10.60
2019-02-09T13:08:00.874Z,11.97
2019-02-09T13:21:11.657Z,9.83
2019-02-09T13:23:44.328Z,12.77
2019-02-09T13:26:19.351Z,12.63
2019-02-09T13:29:01.357Z,13.63
2019-02-09T13:31:37.245Z,9.50
2019-02-09T13:34:10.406Z,8.93
2019-02-09T13:37:03.113Z,11.53
2019-02-09T13:39:36.516Z,11.73
2019-02-09T13:42:10.425Z,10.73
2019-02-09T13:44:44.562Z,15.17
2019-02-09T13:47:29.052Z,16.63
2019-02-09T13:50:06.321Z,11.20
2019-02-09T13:52:52.909Z,9.17
2019-02-09T13:55:36.051Z,12.20
2019-02-09T13:58:24.296Z,16.07
2019-02-09T14:01:14.232Z,10.73
2019-02-09T14:03:54.129Z,13.07
2019-02-09T14:06:30.389Z,15.27
2019-02-09T14:09:06.180Z,16.10
2019-02-09T14:11:41.399Z,19.17
2019-02-09T14:14:16.003Z,11.10
2019-02-09T14:16:48.770Z,14.57
2019-02-09T14:19:24.214Z,10.30
2019-02-09T14:21:58.515Z,11.63
2019-02-09T14:24:50.698Z,13.40
2019-02-09T14:27:25.315Z,11.00
2019-02-09T14:29:59.416Z,13.27
2019-02-09T14:32:50.402Z,9.50
2019-02-09T14:35:27.316Z,11.00
2019-02-09T14:38:03.785Z,10.83
2019-02-09T14:40:37.731Z,10.47
2019-02-09T14:43:11.817Z,10.20
2019-02-09T14:45:45.546Z,7.13
2019-02-09T14:48:20.071Z,13.73
2019-02-09T14:50:53.833Z,10.33
2019-02-09T14:53:27.756Z,8.80
2019-02-09T14:56:01.539Z,10.00
2019-02-09T14:58:37.272Z,5.67
2019-02-09T15:01:09.172Z,10.63
2019-02-09T15:04:06.533Z,9.40
2019-02-09T15:07:01.231Z,9.83
2019-02-09T15:09:35.470Z,9.10
2019-02-09T15:12:10.303Z,6.00
2019-02-09T16:46:54.375Z,19.17
2019-02-09T16:49:29.759Z,13.30
2019-02-09T16:52:03.573Z,18.00
2019-02-09T16:54:43.219Z,15.40
2019-02-09T17:09:18.261Z,13.27
2019-02-09T17:11:54.733Z,12.17
2019-02-09T17:14:32.926Z,18.03
2019-02-09T17:17:11.900Z,21.87
2019-02-09T17:19:46.708Z,18.67
2019-02-09T17:22:20.659Z,17.20
2019-02-09T17:24:54.837Z,18.43
2019-02-09T17:27:28.128Z,18.00
2019-02-09T17:30:07.265Z,20.67
2019-02-09T17:32:40.670Z,16.20
2019-02-09T17:35:17.247Z,21.60
2019-02-09T17:37:52.637Z,14.90
2019-02-09T17:40:27.387Z,23.73
2019-02-09T17:42:59.812Z,19.50
2019-02-09T17:46:13.988Z,23.67
2019-02-09T17:49:06.089Z,18.47
2019-02-09T17:51:38.778Z,15.17
2019-02-09T17:54:11.517Z,15.77
2019-02-09T17:56:44.080Z,15.67
2019-02-09T17:59:18.312Z,12.33
2019-02-09T18:01:50.545Z,17.70
2019-02-09T18:04:22.340Z,20.67
2019-02-09T18:07:12.509Z,14.97
2019-02-09T18:10:14.340Z,19.20
2019-02-09T18:12:47.865Z,16.53
2019-02-09T18:15:35.237Z,15.40
2019-02-09T18:18:11.095Z,21.47
2019-02-09T18:20:46.777Z,15.77
2019-02-09T18:23:19.725Z,14.43
2019-02-09T18:25:54.006Z,16.30
2019-02-09T18:28:29.834Z,19.53
2019-02-09T18:31:01.804Z,16.03
2019-02-09T18:33:36.732Z,12.93
2019-02-09T18:36:10.416Z,15.83
2019-02-09T18:38:46.275Z,15.70
2019-02-09T18:41:22.211Z,16.77
2019-02-09T18:43:55.717Z,18.77
2019-02-09T18:46:28.731Z,18.80
2019-02-09T18:49:02.355Z,16.77
2019-02-09T18:51:36.083Z,16.23
2019-02-09T18:54:09.580Z,12.67
2019-02-09T18:56:44.222Z,24.87
2019-02-09T18:59:16.968Z,11.20
2019-02-09T19:01:49.904Z,15.90
2019-02-09T19:04:23.480Z,16.10
2019-02-09T19:06:56.183Z,18.73
2019-02-09T19:09:30.999Z,14.53
2019-02-09T19:12:03.574Z,22.47
2019-02-09T19:14:36.921Z,13.73
2019-02-09T19:17:14.466Z,12.17
2019-02-09T19:19:48.961Z,20.07
2019-02-09T19:22:23.039Z,16.47
2019-02-09T19:24:56.674Z,17.60
2019-02-09T19:28:48.712Z,15.90
2019-02-09T19:31:23.908Z,18.07
2019-02-09T19:34:00.505Z,15.57
2019-02-09T19:36:33.332Z,17.10
2019-02-09T19:39:10.990Z,20.70
2019-02-09T19:41:45.930Z,14.90
2019-02-09T19:44:18.120Z,13.27
2019-02-09T19:46:51.374Z,18.27
2019-02-09T19:49:24.925Z,15.23
2019-02-09T19:52:00.593Z,15.50
2019-02-09T19:54:34.320Z,13.67
2019-02-09T19:57:08.950Z,17.53
2019-02-09T19:59:42.192Z,18.60
2019-02-09T20:02:14.967Z,10.57
2019-02-09T20:04:49.720Z,17.00
2019-02-09T20:07:22.898Z,21.77
2019-02-09T20:09:57.385Z,19.57
2019-02-09T20:12:30.756Z,19.50
2019-02-09T20:15:06.487Z,15.30
2019-02-09T20:17:41.061Z,13.23
2019-02-09T20:20:17.731Z,24.37
2019-02-09T20:22:49.853Z,16.97
2019-02-09T20:25:23.645Z,19.63
2019-02-09T20:27:56.022Z,16.53
2019-02-09T20:30:33.567Z,13.83
2019-02-09T20:56:22.816Z,13.17
2019-02-09T20:59:02.843Z,16.93
2019-02-09T21:01:36.800Z,15.63
2019-02-09T21:04:39.328Z,17.70
2019-02-09T21:07:12.609Z,12.60
2019-02-09T21:09:51.864Z,12.10
2019-02-09T21:12:25.190Z,12.37
2019-02-09T21:14:59.613Z,68.60
2019-02-09T21:17:33.772Z,24.67
2019-02-09T21:54:33.670Z,14.87
2019-02-09T21:57:07.048Z,20.20
2019-02-09T21:59:39.944Z,21.77
2019-02-09T22:02:14.030Z,16.77
2019-02-09T23:38:52.089Z,23.40
2019-02-09T23:41:26.535Z,14.77
2019-02-09T23:44:00.061Z,17.77
2019-02-09T23:57:14.899Z,21.00
